createdAt,value
2022-09-30T00:02:18.806Z,100.00
2022-09-30T00:07:20.530Z,100.00
2022-09-30T00:12:22.367Z,100.00
2022-09-30T00:17:24.342Z,100.00
2022-09-30T00:22:26.140Z,100.00
2022-09-30T00:27:27.962Z,100.00
2022-09-30T00:32:29.717Z,100.00
2022-09-30T00:37:31.475Z,100.00
2022-09-30T00:42:33.213Z,100.00
2022-09-30T00:48:10.955Z,100.00
2022-09-30T00:53:26.724Z,100.00
2022-09-30T00:58:36.031Z,100.00
2022-09-30T01:03:43.253Z,100.00
2022-09-30T01:08:45.751Z,100.00
2022-09-30T01:13:52.683Z,100.00
2022-09-30T01:19:31.093Z,100.00
2022-09-30T01:25:04.776Z,100.00
2022-09-30T01:30:17.500Z,100.00
2022-09-30T01:35:48.928Z,100.00
2022-09-30T01:41:10.073Z,100.00
2022-09-30T01:46:34.164Z,100.00
2022-09-30T01:51:47.503Z,100.00
2022-09-30T01:56:55.295Z,100.00
2022-09-30T02:02:06.918Z,100.00
2022-09-30T02:07:17.643Z,100.00
2022-09-30T02:12:22.410Z,100.00
2022-09-30T02:17:35.867Z,100.00
2022-09-30T02:22:48.408Z,100.00
2022-09-30T02:27:55.292Z,100.00
2022-09-30T02:33:02.231Z,100.00
2022-09-30T02:38:10.311Z,100.00
2022-09-30T02:43:12.078Z,100.00
2022-09-30T02:48:35.516Z,100.00
2022-09-30T02:53:57.507Z,100.00
2022-09-30T02:58:59.254Z,100.00
2022-09-30T03:04:06.192Z,100.00
2022-09-30T03:09:09.026Z,100.00
2022-09-30T03:14:32.167Z,100.00
2022-09-30T03:20:04.905Z,100.00
2022-09-30T03:25:21.286Z,100.00
2022-09-30T03:30:29.378Z,100.00
2022-09-30T03:35:36.898Z,100.00
2022-09-30T03:40:53.725Z,100.00
2022-09-30T03:46:31.444Z,100.00
2022-09-30T03:51:39.324Z,100.00
2022-09-30T03:56:44.429Z,100.00
2022-09-30T04:01:46.173Z,100.00
2022-09-30T04:06:48.144Z,100.00
2022-09-30T04:11:49.873Z,100.00
2022-09-30T04:16:53.915Z,100.00
2022-09-30T04:21:55.869Z,100.00
2022-09-30T04:26:57.635Z,100.00
2022-09-30T04:31:59.466Z,100.00
2022-09-30T04:37:01.218Z,100.00
2022-09-30T04:42:02.990Z,100.00
2022-09-30T04:47:04.874Z,100.00
2022-09-30T04:52:06.638Z,100.00
2022-09-30T04:57:33.660Z,100.00
2022-09-30T05:02:35.761Z,100.00
2022-09-30T05:07:37.538Z,100.00
2022-09-30T05:12:41.081Z,100.00
2022-09-30T05:17:42.859Z,100.00
2022-09-30T05:22:44.907Z,100.00
2022-09-30T05:27:49.468Z,100.00
2022-09-30T05:32:51.282Z,100.00
2022-09-30T05:37:53.039Z,100.00
2022-09-30T05:42:57.146Z,100.00
2022-09-30T05:47:59.334Z,100.00
2022-09-30T05:53:01.057Z,100.00
2022-09-30T05:58:02.810Z,100.00
2022-09-30T06:03:04.634Z,100.00
2022-09-30T06:08:07.254Z,100.00
2022-09-30T06:13:10.346Z,100.00
2022-09-30T06:18:17.010Z,100.00
2022-09-30T06:23:20.373Z,100.00
2022-09-30T06:28:22.788Z,100.00
2022-09-30T06:33:24.518Z,100.00
2022-09-30T06:38:28.766Z,100.00
2022-09-30T06:43:30.571Z,100.00
2022-09-30T06:48:38.229Z,100.00
2022-09-30T06:53:40.642Z,100.00
2022-09-30T06:58:43.069Z,100.00
2022-09-30T07:03:58.184Z,100.00
2022-09-30T07:09:00.063Z,100.00
2022-09-30T07:14:01.901Z,100.00
2022-09-30T07:19:05.488Z,100.00
2022-09-30T07:24:07.311Z,100.00
2022-09-30T07:29:09.112Z,100.00
2022-09-30T07:34:11.194Z,100.00
2022-09-30T07:39:12.986Z,100.00
2022-09-30T07:44:15.218Z,100.00
2022-09-30T07:49:25.633Z,100.00
2022-09-30T07:54:30.340Z,100.00
2022-09-30T07:59:36.082Z,100.00
2022-09-30T08:04:42.901Z,100.00
2022-09-30T08:09:45.724Z,100.00
2022-09-30T08:14:47.552Z,100.00
2022-09-30T08:19:49.304Z,100.00
2022-09-30T08:24:51.060Z,100.00
2022-09-30T08:29:55.505Z,100.00
2022-09-30T08:34:59.233Z,100.00
2022-09-30T08:40:01.362Z,100.00
2022-09-30T08:45:18.231Z,100.00
2022-09-30T08:50:43.165Z,100.00
2022-09-30T08:55:46.457Z,100.00
2022-09-30T09:00:50.388Z,100.00
2022-09-30T09:06:19.794Z,100.00
2022-09-30T09:11:43.517Z,100.00
2022-09-30T09:16:48.173Z,100.00
2022-09-30T09:21:59.898Z,100.00
2022-09-30T09:27:18.671Z,100.00
2022-09-30T09:32:25.859Z,100.00
2022-09-30T09:38:02.498Z,100.00
2022-09-30T09:43:18.707Z,100.00
2022-09-30T09:48:23.431Z,100.00
2022-09-30T09:53:45.354Z,100.00
2022-09-30T09:59:13.252Z,100.00
2022-09-30T10:04:16.262Z,100.00
2022-09-30T10:09:30.382Z,100.00
2022-09-30T10:14:50.173Z,100.00
2022-09-30T10:20:19.978Z,100.00
2022-09-30T10:25:24.707Z,100.00
2022-09-30T10:30:55.685Z,100.00
2022-09-30T10:36:04.564Z,100.00
2022-09-30T10:41:06.576Z,100.00
2022-09-30T10:46:26.919Z,100.00
2022-09-30T10:51:35.976Z,100.00
2022-09-30T10:56:42.923Z,100.00
2022-09-30T11:01:52.610Z,100.00
2022-09-30T11:07:11.812Z,100.00
2022-09-30T11:12:27.403Z,100.00
2022-09-30T11:17:41.306Z,100.00
2022-09-30T11:22:49.098Z,100.00
2022-09-30T11:28:15.745Z,100.00
2022-09-30T11:33:30.604Z,97.59
2022-09-30T11:38:40.415Z,82.27
2022-09-30T11:43:54.355Z,75.37
2022-09-30T11:49:15.505Z,80.75
2022-09-30T11:54:38.539Z,72.65
2022-09-30T12:00:05.062Z,76.77
2022-09-30T12:05:19.855Z,79.45
2022-09-30T12:10:34.317Z,76.24
2022-09-30T12:15:42.567Z,82.58
2022-09-30T12:20:55.517Z,76.08
2022-09-30T12:26:02.700Z,66.96
2022-09-30T12:31:30.728Z,72.40
2022-09-30T12:36:36.971Z,85.12
2022-09-30T12:41:40.903Z,89.10
2022-09-30T12:46:42.695Z,88.97
2022-09-30T12:51:49.053Z,79.64
2022-09-30T12:56:57.142Z,83.88
2022-09-30T13:02:01.424Z,79.89
2022-09-30T13:07:03.231Z,83.78
2022-09-30T13:12:04.960Z,91.91
2022-09-30T13:17:06.676Z,100.00
2022-09-30T13:22:29.803Z,100.00
2022-09-30T13:27:55.650Z,93.76
2022-09-30T13:33:02.397Z,99.74
2022-09-30T13:38:17.826Z,99.59
2022-09-30T13:43:35.729Z,100.00
2022-09-30T13:48:41.279Z,100.00
2022-09-30T13:53:51.330Z,100.00
2022-09-30T13:59:26.887Z,100.00
2022-09-30T14:04:41.332Z,100.00
2022-09-30T14:09:49.130Z,100.00
2022-09-30T14:15:14.380Z,100.00
2022-09-30T14:20:34.413Z,100.00
2022-09-30T14:25:45.224Z,100.00
2022-09-30T14:31:06.926Z,100.00
2022-09-30T14:36:15.922Z,100.00
2022-09-30T14:41:23.339Z,100.00
2022-09-30T14:46:31.289Z,100.00
2022-09-30T14:51:43.499Z,100.00
2022-09-30T14:56:45.842Z,100.00
2022-09-30T15:01:51.543Z,100.00
2022-09-30T15:06:54.351Z,100.00
2022-09-30T15:11:58.345Z,100.00
2022-09-30T15:17:03.889Z,100.00
2022-09-30T15:22:10.550Z,100.00
2022-09-30T15:27:21.739Z,100.00
2022-09-30T15:32:25.795Z,100.00
2022-09-30T15:37:33.838Z,100.00
2022-09-30T15:42:41.500Z,100.00
2022-09-30T15:47:56.247Z,100.00
2022-09-30T15:53:05.168Z,100.00
2022-09-30T15:58:26.903Z,100.00
2022-09-30T16:03:31.299Z,100.00
2022-09-30T16:08:43.771Z,100.00
2022-09-30T16:13:46.025Z,100.00
2022-09-30T16:18:49.598Z,100.00
2022-09-30T16:23:51.402Z,100.00
2022-09-30T16:28:54.026Z,100.00
2022-09-30T16:33:55.963Z,100.00
2022-09-30T16:38:57.699Z,100.00
2022-09-30T16:43:59.470Z,100.00
2022-09-30T16:49:18.497Z,100.00
2022-09-30T16:54:22.712Z,100.00
2022-09-30T16:59:25.039Z,100.00
2022-09-30T17:04:28.051Z,100.00
2022-09-30T17:09:30.450Z,100.00
2022-09-30T17:14:32.788Z,100.00
2022-09-30T17:19:35.584Z,100.00
2022-09-30T17:24:37.365Z,100.00
2022-09-30T17:29:41.989Z,100.00
2022-09-30T17:34:44.884Z,100.00
2022-09-30T17:39:46.674Z,100.00
2022-09-30T17:44:48.609Z,100.00
2022-09-30T17:49:50.509Z,100.00
2022-09-30T17:54:53.095Z,100.00
2022-09-30T17:59:55.037Z,100.00
2022-09-30T18:04:56.808Z,100.00
2022-09-30T18:09:58.588Z,100.00
2022-09-30T18:15:00.492Z,100.00
2022-09-30T18:20:02.270Z,100.00
2022-09-30T18:25:23.193Z,100.00
2022-09-30T18:30:25.817Z,100.00
2022-09-30T18:35:27.893Z,100.00
2022-09-30T18:40:30.636Z,100.00
2022-09-30T18:45:40.605Z,100.00
2022-09-30T18:50:42.374Z,100.00
2022-09-30T18:55:44.353Z,100.00
2022-09-30T19:00:49.234Z,100.00
2022-09-30T19:05:51.083Z,100.00
2022-09-30T19:10:54.664Z,100.00
2022-09-30T19:16:03.129Z,100.00
2022-09-30T19:21:11.796Z,100.00
2022-09-30T19:26:15.608Z,100.00
2022-09-30T19:31:19.992Z,100.00
2022-09-30T19:36:21.989Z,100.00
2022-09-30T19:41:24.202Z,100.00
2022-09-30T19:46:26.066Z,100.00
2022-09-30T19:51:30.861Z,100.00
2022-09-30T19:56:33.106Z,100.00
2022-09-30T20:01:35.538Z,100.00
2022-09-30T20:06:37.832Z,100.00
2022-09-30T20:11:39.841Z,100.00
2022-09-30T20:16:43.667Z,100.00
2022-09-30T20:21:46.650Z,100.00
2022-09-30T20:26:50.278Z,100.00
2022-09-30T20:31:53.067Z,100.00
2022-09-30T20:36:54.833Z,100.00
2022-09-30T20:41:58.758Z,100.00
2022-09-30T20:47:02.127Z,100.00
2022-09-30T20:52:04.101Z,100.00
2022-09-30T20:57:07.603Z,100.00
2022-09-30T21:02:14.185Z,100.00
2022-09-30T21:07:16.083Z,100.00
2022-09-30T21:12:17.966Z,100.00
2022-09-30T21:17:19.725Z,100.00
2022-09-30T21:22:21.480Z,100.00
2022-09-30T21:27:23.254Z,100.00
2022-09-30T21:32:25.040Z,100.00
2022-09-30T21:37:26.976Z,100.00
2022-09-30T21:42:28.747Z,100.00
2022-09-30T21:47:33.563Z,100.00
2022-09-30T21:52:38.149Z,100.00
2022-09-30T21:57:40.171Z,100.00
2022-09-30T22:02:42.006Z,100.00
2022-09-30T22:07:45.958Z,100.00
2022-09-30T22:12:48.168Z,100.00
2022-09-30T22:17:53.208Z,100.00
2022-09-30T22:22:54.956Z,100.00
2022-09-30T22:27:56.748Z,100.00
2022-09-30T22:33:17.172Z,100.00
2022-09-30T22:38:22.016Z,100.00
2022-09-30T22:43:24.564Z,100.00
2022-09-30T22:48:28.800Z,100.00
2022-09-30T22:53:30.594Z,100.00
2022-09-30T22:58:32.361Z,100.00
2022-09-30T23:03:34.975Z,100.00
2022-09-30T23:08:42.039Z,100.00
2022-09-30T23:13:46.185Z,100.00
2022-09-30T23:18:51.064Z,100.00
2022-09-30T23:23:52.963Z,100.00
2022-09-30T23:29:03.456Z,100.00
2022-09-30T23:34:05.424Z,100.00
2022-09-30T23:39:19.496Z,100.00
2022-09-30T23:44:21.099Z,100.00
2022-09-30T23:49:22.604Z,100.00
2022-09-30T23:54:24.205Z,100.00
2022-09-30T23:59:25.764Z,100.00
